Time;durP1;ratioP1;P1;durP2;ratioP2;P2;SDS_P1;SDS_P2;PMS_P1;PMS_P2;Temp;Humidity;BMP_temperature;BMP_pressure;BME280_temperature;BME280_humidity;BME280_pressure;Samples;Min_cycle;Max_cycle;Signal;HPM_P1;HPM_P2
2023/03/13 00:01:25;;;;;;;5.30;1.93;;;11.70;99.90;;;;;;5115658;28;20835;-69
2023/03/13 00:03:51;;;;;;;11.43;2.70;;;11.80;99.90;;;;;;5115776;28;20394;-69
2023/03/13 00:06:17;;;;;;;13.57;3.67;;;11.70;99.90;;;;;;5117683;27;20497;-68
2023/03/13 00:08:46;;;;;;;10.87;2.53;;;11.80;99.90;;;;;;5115622;28;20453;-69
2023/03/13 00:11:14;;;;;;;9.80;2.17;;;11.70;99.90;;;;;;5115061;28;20636;-68
2023/03/13 00:13:41;;;;;;;4.60;2.20;;;11.80;99.90;;;;;;5115096;28;20517;-68
2023/03/13 00:16:09;;;;;;;7.77;2.23;;;11.90;99.90;;;;;;5113880;28;20462;-68
2023/03/13 00:18:35;;;;;;;10.50;1.83;;;11.90;99.90;;;;;;5130496;27;20938;-68
2023/03/13 00:21:03;;;;;;;13.73;2.60;;;11.90;99.90;;;;;;5136129;27;20449;-69
2023/03/13 00:23:29;;;;;;;6.27;2.20;;;11.90;99.90;;;;;;5135905;27;20193;-68
2023/03/13 00:26:03;;;;;;;6.43;2.27;;;12.00;99.90;;;;;;5134638;27;20512;-69
2023/03/13 00:28:31;;;;;;;10.40;2.40;;;12.00;99.90;;;;;;5135718;27;20409;-68
2023/03/13 00:31:12;;;;;;;4.77;1.83;;;12.00;99.90;;;;;;5134360;27;20425;-68
2023/03/13 00:33:43;;;;;;;3.43;1.40;;;11.90;99.90;;;;;;5136418;27;20512;-68
2023/03/13 00:36:22;;;;;;;4.73;1.87;;;12.00;99.90;;;;;;5122191;27;20445;-69
2023/03/13 00:38:50;;;;;;;4.33;1.97;;;12.00;99.90;;;;;;5135958;27;20736;-69
2023/03/13 00:41:22;;;;;;;4.53;2.40;;;12.00;99.90;;;;;;5136309;27;20440;-69
2023/03/13 00:43:48;;;;;;;16.40;2.27;;;12.00;99.90;;;;;;5143687;27;20408;-69
2023/03/13 00:46:16;;;;;;;11.00;1.80;;;11.90;99.90;;;;;;5133927;27;20467;-69
2023/03/13 00:48:41;;;;;;;6.27;2.30;;;12.00;99.90;;;;;;5115277;28;20464;-68
2023/03/13 00:51:07;;;;;;;5.33;1.57;;;12.00;99.90;;;;;;5114088;28;20427;-68
2023/03/13 00:53:33;;;;;;;9.50;2.83;;;12.00;99.90;;;;;;5115787;28;20409;-69
2023/03/13 00:56:03;;;;;;;10.40;2.47;;;12.00;99.90;;;;;;5118930;28;20450;-68
2023/03/13 00:58:31;;;;;;;9.13;3.00;;;12.00;99.90;;;;;;5119058;28;20493;-68
2023/03/13 01:00:56;;;;;;;5.63;1.97;;;12.00;99.90;;;;;;5119183;28;20494;-69
2023/03/13 01:03:26;;;;;;;6.17;1.90;;;12.10;99.90;;;;;;5119113;28;20457;-67
2023/03/13 01:06:00;;;;;;;8.53;1.93;;;12.10;99.90;;;;;;5132206;27;20188;-66
2023/03/13 01:08:27;;;;;;;8.23;2.60;;;12.00;99.90;;;;;;5119246;28;20406;-67
2023/03/13 01:11:05;;;;;;;8.57;1.37;;;12.00;99.90;;;;;;5118662;28;20482;-68
2023/03/13 01:13:32;;;;;;;14.60;3.57;;;12.00;99.90;;;;;;5118934;28;20426;-68
2023/03/13 01:16:11;;;;;;;4.67;1.63;;;12.00;99.90;;;;;;5118565;28;20450;-68
2023/03/13 01:18:39;;;;;;;11.67;2.80;;;12.00;99.90;;;;;;5118315;28;20453;-69
2023/03/13 01:21:05;;;;;;;7.43;1.97;;;12.00;99.90;;;;;;5118520;28;20501;-66
2023/03/13 01:23:31;;;;;;;8.30;2.17;;;12.00;99.90;;;;;;5132453;27;20414;-67
2023/03/13 01:25:57;;;;;;;4.50;2.80;;;12.10;99.90;;;;;;5139098;27;20406;-68
2023/03/13 01:28:24;;;;;;;6.80;1.60;;;12.10;99.90;;;;;;5138967;27;20560;-67
2023/03/13 01:30:49;;;;;;;8.03;1.83;;;12.10;99.90;;;;;;5139125;27;21100;-69
2023/03/13 01:33:15;;;;;;;11.80;2.00;;;12.10;99.90;;;;;;5129108;27;20413;-69
2023/03/13 01:35:41;;;;;;;4.37;1.60;;;12.20;99.90;;;;;;5118180;28;20206;-68
2023/03/13 01:38:07;;;;;;;4.57;2.03;;;12.20;99.90;;;;;;5117317;28;20485;-67
2023/03/13 01:40:44;;;;;;;10.43;2.93;;;12.20;99.90;;;;;;5117779;27;20172;-67
2023/03/13 01:43:22;;;;;;;6.27;1.70;;;12.20;99.90;;;;;;5117701;28;20612;-67
2023/03/13 01:46:06;;;;;;;5.77;1.80;;;12.20;99.90;;;;;;5117846;28;20554;-68
2023/03/13 01:48:36;;;;;;;5.50;1.97;;;12.20;99.90;;;;;;5117800;28;20403;-68
2023/03/13 01:51:07;;;;;;;7.07;1.30;;;12.20;99.90;;;;;;5143278;27;20447;-67
2023/03/13 01:53:34;;;;;;;9.03;2.00;;;12.20;99.90;;;;;;5157338;27;20419;-68
2023/03/13 01:56:01;;;;;;;3.13;1.90;;;12.10;99.90;;;;;;5159012;27;20814;-67
2023/03/13 01:58:29;;;;;;;2.03;1.10;;;12.20;99.90;;;;;;5159091;27;20772;-67
2023/03/13 02:00:54;;;;;;;12.43;1.93;;;12.20;99.90;;;;;;5135715;27;20442;-68
2023/03/13 02:03:21;;;;;;;5.27;2.00;;;12.20;99.90;;;;;;5117710;28;20414;-68
2023/03/13 02:05:49;;;;;;;4.57;2.03;;;12.10;99.90;;;;;;5135180;27;20191;-66
2023/03/13 02:08:21;;;;;;;3.07;1.80;;;12.10;99.90;;;;;;5135090;27;20448;-68
2023/03/13 02:11:03;;;;;;;5.03;1.40;;;12.10;99.90;;;;;;5132254;27;20413;-67
2023/03/13 02:13:29;;;;;;;3.63;1.70;;;12.10;99.90;;;;;;5137372;27;20437;-68
2023/03/13 02:15:55;;;;;;;4.90;1.70;;;12.10;99.90;;;;;;5137604;27;20453;-68
2023/03/13 02:18:21;;;;;;;2.30;1.27;;;12.00;99.90;;;;;;5130925;27;20777;-67
2023/03/13 02:20:49;;;;;;;1.97;1.10;;;12.10;99.90;;;;;;5137625;27;20409;-68
2023/03/13 02:23:28;;;;;;;4.97;1.53;;;12.10;99.90;;;;;;5137281;27;20167;-68
2023/03/13 02:25:54;;;;;;;2.57;1.00;;;12.00;99.90;;;;;;5136878;27;20895;-67
2023/03/13 02:28:24;;;;;;;4.27;1.50;;;11.90;99.90;;;;;;5135567;27;20497;-67
2023/03/13 02:30:53;;;;;;;1.03;0.93;;;11.80;99.90;;;;;;5133382;27;20409;-67
2023/03/13 02:33:21;;;;;;;11.83;5.00;;;11.70;99.90;;;;;;5136606;27;20405;-68
2023/03/13 02:35:48;;;;;;;2.90;1.27;;;11.70;99.90;;;;;;5136514;27;20552;-67
2023/03/13 02:38:19;;;;;;;5.23;1.27;;;11.60;99.90;;;;;;5136261;27;20402;-68
2023/03/13 02:40:47;;;;;;;6.80;1.37;;;11.60;99.90;;;;;;5127381;27;20489;-67
2023/03/13 02:43:30;;;;;;;4.33;1.10;;;11.50;99.90;;;;;;5115929;28;20418;-69
2023/03/13 02:46:03;;;;;;;4.03;1.83;;;11.50;99.90;;;;;;5116062;28;20399;-67
2023/03/13 02:48:31;;;;;;;3.07;1.07;;;11.40;99.90;;;;;;5118177;27;20399;-67
2023/03/13 02:50:57;;;;;;;6.07;1.23;;;11.40;99.90;;;;;;5136356;27;20524;-69
2023/03/13 02:53:23;;;;;;;8.60;1.20;;;11.40;99.90;;;;;;5136512;27;20853;-67
2023/03/13 02:55:49;;;;;;;1.57;0.90;;;11.50;99.90;;;;;;5136754;27;20697;-67
2023/03/13 02:58:14;;;;;;;1.00;0.80;;;11.40;99.90;;;;;;5121651;27;20169;-67
2023/03/13 03:00:40;;;;;;;0.93;0.70;;;11.40;99.90;;;;;;5116219;28;20772;-67
2023/03/13 03:03:05;;;;;;;1.57;0.93;;;11.40;99.90;;;;;;5148508;27;20178;-69
2023/03/13 03:05:31;;;;;;;2.40;0.93;;;11.50;99.90;;;;;;5119888;27;20244;-68
2023/03/13 03:07:56;;;;;;;1.57;0.77;;;11.40;99.90;;;;;;5134234;27;20259;-67
2023/03/13 03:10:22;;;;;;;2.03;1.13;;;11.40;99.90;;;;;;5136746;27;20247;-68
2023/03/13 03:12:47;;;;;;;4.93;0.80;;;11.40;99.90;;;;;;5136391;27;20743;-67
2023/03/13 03:15:13;;;;;;;1.20;0.70;;;11.40;99.90;;;;;;5135991;27;20275;-68
2023/03/13 03:17:38;;;;;;;2.77;1.30;;;11.40;99.90;;;;;;5134599;27;20172;-68
2023/03/13 03:20:10;;;;;;;1.50;0.93;;;11.40;99.90;;;;;;5135991;27;20532;-68
2023/03/13 03:22:37;;;;;;;1.10;0.80;;;11.50;99.90;;;;;;5135929;27;20656;-68
2023/03/13 03:25:05;;;;;;;2.27;0.93;;;11.50;99.90;;;;;;5135778;27;20975;-68
2023/03/13 03:27:31;;;;;;;0.83;0.50;;;11.50;99.90;;;;;;5130880;27;20422;-67
2023/03/13 03:29:56;;;;;;;0.80;0.63;;;11.60;99.90;;;;;;5114207;28;20483;-69
2023/03/13 03:32:22;;;;;;;1.63;0.70;;;11.60;99.90;;;;;;5115412;28;20966;-68
2023/03/13 03:34:47;;;;;;;0.90;0.70;;;11.70;99.90;;;;;;5115092;28;20685;-67
2023/03/13 03:37:13;;;;;;;0.73;0.60;;;11.70;99.90;;;;;;5116520;27;20173;-67
2023/03/13 03:39:38;;;;;;;0.87;0.60;;;11.80;99.90;;;;;;5121342;27;20176;-68
2023/03/13 03:42:04;;;;;;;2.77;0.70;;;11.80;99.90;;;;;;5135530;27;20188;-67
2023/03/13 03:44:30;;;;;;;0.90;0.60;;;11.80;99.90;;;;;;5135580;27;20626;-67
2023/03/13 03:46:55;;;;;;;2.43;0.87;;;11.90;99.90;;;;;;5135894;27;20428;-68
2023/03/13 03:49:21;;;;;;;2.60;0.80;;;11.90;99.90;;;;;;5132262;27;20661;-69
2023/03/13 03:51:47;;;;;;;1.63;1.20;;;11.90;99.90;;;;;;5134638;27;20192;-67
2023/03/13 03:54:13;;;;;;;0.80;0.60;;;12.00;99.90;;;;;;5135716;27;20167;-69
2023/03/13 03:56:38;;;;;;;1.50;0.67;;;12.10;99.90;;;;;;5135122;27;20532;-66
2023/03/13 03:59:04;;;;;;;1.00;0.70;;;12.10;99.90;;;;;;5125380;27;20172;-68
2023/03/13 04:01:29;;;;;;;1.00;0.90;;;12.30;99.90;;;;;;5114986;28;20597;-67
2023/03/13 04:03:55;;;;;;;0.80;0.60;;;12.30;99.90;;;;;;5113584;28;20643;-67
2023/03/13 04:06:20;;;;;;;1.03;0.67;;;12.30;99.90;;;;;;5115898;27;20200;-67
2023/03/13 04:08:46;;;;;;;0.80;0.60;;;12.30;99.90;;;;;;5121663;27;20281;-68
2023/03/13 04:11:11;;;;;;;1.37;1.10;;;12.40;99.90;;;;;;5114840;28;20192;-68
2023/03/13 04:13:37;;;;;;;1.43;1.33;;;12.40;99.90;;;;;;5132777;27;20183;-67
2023/03/13 04:16:09;;;;;;;1.00;0.80;;;12.40;99.90;;;;;;5136144;27;20192;-67
2023/03/13 04:18:36;;;;;;;1.00;0.80;;;12.40;99.90;;;;;;5114948;28;20195;-67
2023/03/13 04:21:03;;;;;;;1.30;1.07;;;12.50;99.90;;;;;;5114981;28;20497;-68
2023/03/13 04:23:28;;;;;;;0.77;0.60;;;12.50;99.90;;;;;;5114086;28;20265;-68
2023/03/13 04:25:54;;;;;;;1.47;0.73;;;12.50;99.90;;;;;;5114599;28;20442;-67
2023/03/13 04:28:19;;;;;;;0.90;0.70;;;12.50;99.90;;;;;;5114319;28;20271;-67
2023/03/13 04:30:45;;;;;;;1.30;0.90;;;12.50;99.90;;;;;;5113536;28;20207;-67
2023/03/13 04:33:10;;;;;;;2.30;0.70;;;12.50;99.90;;;;;;5122060;28;20295;-69
2023/03/13 04:35:36;;;;;;;0.80;0.70;;;12.60;99.90;;;;;;5132861;28;20184;-68
2023/03/13 04:38:01;;;;;;;1.27;0.67;;;12.50;99.90;;;;;;5133372;27;20161;-69
2023/03/13 04:40:28;;;;;;;1.20;0.80;;;12.60;99.90;;;;;;5133749;28;20168;-69
2023/03/13 04:42:53;;;;;;;1.43;0.80;;;12.50;99.90;;;;;;5132008;28;20188;-69
2023/03/13 04:45:19;;;;;;;0.77;0.60;;;12.60;99.90;;;;;;5133719;28;20398;-69
2023/03/13 04:47:47;;;;;;;0.90;0.70;;;12.60;99.90;;;;;;5133674;28;20168;-69
2023/03/13 04:50:13;;;;;;;1.20;0.73;;;12.60;99.90;;;;;;5131479;28;20169;-69
2023/03/13 04:52:39;;;;;;;0.73;0.60;;;12.60;99.90;;;;;;5113019;28;20429;-69
2023/03/13 04:55:05;;;;;;;1.87;0.73;;;12.60;99.90;;;;;;5112616;28;20197;-67
2023/03/13 04:57:30;;;;;;;0.90;0.70;;;12.70;99.90;;;;;;5111940;28;20595;-68
2023/03/13 04:59:56;;;;;;;1.03;0.70;;;12.70;99.90;;;;;;5119414;28;20913;-68
2023/03/13 05:02:21;;;;;;;1.17;0.60;;;12.70;99.90;;;;;;5132605;27;20218;-68
2023/03/13 05:04:47;;;;;;;0.80;0.60;;;12.80;99.90;;;;;;5121979;28;20249;-68
2023/03/13 05:07:12;;;;;;;1.77;0.60;;;12.80;99.90;;;;;;5112611;28;20203;-69
2023/03/13 05:09:38;;;;;;;1.23;0.70;;;12.80;99.90;;;;;;5112351;28;20169;-69
2023/03/13 05:12:04;;;;;;;0.73;0.60;;;12.80;99.90;;;;;;5111824;28;20228;-69
2023/03/13 05:14:29;;;;;;;0.90;0.70;;;12.90;99.90;;;;;;5112040;28;20272;-69
2023/03/13 05:16:55;;;;;;;0.80;0.70;;;12.90;99.90;;;;;;5113413;28;20237;-70
2023/03/13 05:19:20;;;;;;;2.50;0.80;;;12.90;99.90;;;;;;5114117;28;20162;-69
2023/03/13 05:21:46;;;;;;;1.13;0.80;;;13.00;99.90;;;;;;5119266;27;20185;-68
2023/03/13 05:24:11;;;;;;;1.07;0.70;;;13.00;99.90;;;;;;5125154;27;20673;-68
2023/03/13 05:26:37;;;;;;;1.13;0.70;;;13.10;99.90;;;;;;5134486;27;20186;-68
2023/03/13 05:29:02;;;;;;;1.40;0.73;;;13.10;99.90;;;;;;5152468;27;20246;-69
2023/03/13 05:31:28;;;;;;;1.00;0.80;;;13.10;99.90;;;;;;5132935;28;20183;-68
2023/03/13 05:33:53;;;;;;;1.43;0.60;;;13.10;99.90;;;;;;5134117;28;20172;-68
2023/03/13 05:36:19;;;;;;;0.80;0.70;;;13.20;99.90;;;;;;5134062;28;20188;-68
2023/03/13 05:38:44;;;;;;;2.47;0.80;;;13.20;99.90;;;;;;5134176;28;20168;-67
2023/03/13 05:41:10;;;;;;;1.20;1.10;;;13.30;99.90;;;;;;5134806;27;20245;-68
2023/03/13 05:43:35;;;;;;;3.63;1.00;;;13.30;99.90;;;;;;5136786;27;20157;-67
2023/03/13 05:46:01;;;;;;;1.27;1.00;;;13.30;99.90;;;;;;5134489;27;20181;-67
2023/03/13 05:48:26;;;;;;;1.37;0.80;;;13.30;99.90;;;;;;5125817;27;20172;-69
2023/03/13 05:50:52;;;;;;;1.80;1.30;;;13.20;99.90;;;;;;5126060;27;20199;-68
2023/03/13 05:53:17;;;;;;;0.97;0.77;;;13.20;99.90;;;;;;5132792;27;20180;-68
2023/03/13 05:55:43;;;;;;;4.83;0.90;;;13.20;99.90;;;;;;5135736;27;20188;-68
2023/03/13 05:58:08;;;;;;;0.90;0.80;;;13.10;99.90;;;;;;5135877;27;20182;-69
2023/03/13 06:00:34;;;;;;;0.80;0.60;;;13.10;99.90;;;;;;5121676;27;20645;-69
2023/03/13 06:03:00;;;;;;;0.80;0.70;;;13.10;99.90;;;;;;5115274;28;20161;-70
2023/03/13 06:05:25;;;;;;;0.80;0.60;;;13.10;99.90;;;;;;5119244;27;20407;-70
2023/03/13 06:07:52;;;;;;;5.20;2.60;;;13.10;99.90;;;;;;5124206;27;20572;-69
2023/03/13 06:10:17;;;;;;;1.93;1.10;;;13.20;99.90;;;;;;5124108;27;20218;-70
2023/03/13 06:12:43;;;;;;;1.40;0.80;;;13.20;99.90;;;;;;5135270;27;20438;-70
2023/03/13 06:15:09;;;;;;;1.10;0.73;;;13.30;99.90;;;;;;5125890;27;20199;-70
2023/03/13 06:17:35;;;;;;;1.20;0.97;;;13.30;99.90;;;;;;5123489;27;20161;-70
2023/03/13 06:20:01;;;;;;;1.10;0.87;;;13.40;99.90;;;;;;5124670;27;20461;-70
2023/03/13 06:22:27;;;;;;;1.00;0.80;;;13.50;99.90;;;;;;5125228;27;20506;-70
2023/03/13 06:24:52;;;;;;;4.43;0.70;;;13.50;99.90;;;;;;5123368;27;20524;-70
2023/03/13 06:27:18;;;;;;;1.20;1.10;;;13.60;99.90;;;;;;5124683;27;20172;-70
2023/03/13 06:29:43;;;;;;;1.97;1.10;;;13.60;99.90;;;;;;5125004;27;20243;-70
2023/03/13 06:32:09;;;;;;;1.30;0.87;;;13.60;99.90;;;;;;5123327;27;20543;-70
2023/03/13 06:34:34;;;;;;;1.07;0.97;;;13.70;99.90;;;;;;5123803;27;20171;-70
2023/03/13 06:37:00;;;;;;;1.47;0.70;;;13.70;99.90;;;;;;5144061;27;20578;-69
2023/03/13 06:39:25;;;;;;;3.43;0.90;;;13.70;99.90;;;;;;5137500;27;20168;-69
2023/03/13 06:41:51;;;;;;;2.10;0.73;;;13.80;99.90;;;;;;5134823;27;20592;-69
2023/03/13 06:44:16;;;;;;;3.00;1.10;;;13.80;99.90;;;;;;5121031;27;20177;-69
2023/03/13 06:46:42;;;;;;;1.10;0.90;;;13.80;99.90;;;;;;5114479;28;20648;-70
2023/03/13 06:49:08;;;;;;;0.90;0.70;;;13.80;99.90;;;;;;5116482;27;20168;-70
2023/03/13 06:51:33;;;;;;;0.97;0.77;;;13.80;99.90;;;;;;5124439;27;20634;-70
2023/03/13 06:54:02;;;;;;;1.20;0.97;;;13.90;99.90;;;;;;5123502;27;20229;-70
2023/03/13 06:56:27;;;;;;;1.67;1.40;;;13.90;99.90;;;;;;5120404;27;20199;-69
2023/03/13 06:58:53;;;;;;;1.47;1.07;;;14.00;99.90;;;;;;5113740;28;20403;-69
2023/03/13 07:01:18;;;;;;;2.70;1.53;;;14.10;99.90;;;;;;5127282;27;20192;-69
2023/03/13 07:03:46;;;;;;;2.57;1.37;;;14.20;99.90;;;;;;5131548;27;20175;-69
2023/03/13 07:06:12;;;;;;;2.00;1.80;;;14.30;99.90;;;;;;5113870;28;20165;-69
2023/03/13 07:08:38;;;;;;;1.67;1.20;;;14.30;99.90;;;;;;5113574;28;20846;-69
2023/03/13 07:11:09;;;;;;;2.27;1.37;;;14.40;99.90;;;;;;5113820;28;20838;-69
2023/03/13 07:13:36;;;;;;;1.90;1.20;;;14.50;99.90;;;;;;5113583;28;20535;-69
2023/03/13 07:16:03;;;;;;;4.43;1.73;;;14.50;99.90;;;;;;5112352;28;20468;-69
2023/03/13 07:18:29;;;;;;;1.70;1.60;;;14.60;99.90;;;;;;5113334;28;20451;-69
2023/03/13 07:20:58;;;;;;;5.30;1.90;;;14.60;99.90;;;;;;5114513;27;20423;-70
2023/03/13 07:23:25;;;;;;;2.13;1.47;;;14.60;99.90;;;;;;5114291;28;20431;-70
2023/03/13 07:25:55;;;;;;;2.80;1.20;;;14.60;99.90;;;;;;5113648;28;20797;-70
2023/03/13 07:28:21;;;;;;;3.00;1.50;;;14.60;99.90;;;;;;5113280;28;20419;-70
2023/03/13 07:30:47;;;;;;;1.90;1.30;;;14.60;99.90;;;;;;5132796;27;20402;-69
2023/03/13 07:33:12;;;;;;;1.73;1.37;;;14.80;99.90;;;;;;5123374;27;20953;-69
2023/03/13 07:35:38;;;;;;;2.00;1.47;;;14.80;99.90;;;;;;5123296;27;20237;-69
2023/03/13 07:38:03;;;;;;;2.63;2.10;;;14.80;99.90;;;;;;5130562;27;20175;-69
2023/03/13 07:40:29;;;;;;;3.00;1.67;;;14.90;99.90;;;;;;5133847;27;20204;-69
2023/03/13 07:42:54;;;;;;;6.40;2.07;;;15.00;99.90;;;;;;5132119;27;20192;-70
2023/03/13 07:45:20;;;;;;;3.70;1.60;;;15.10;99.90;;;;;;5116607;27;20172;-69
2023/03/13 07:47:45;;;;;;;2.17;1.27;;;15.20;99.90;;;;;;5124851;27;20169;-69
2023/03/13 07:50:11;;;;;;;3.70;1.60;;;15.20;99.90;;;;;;5143494;27;20198;-69
2023/03/13 07:52:36;;;;;;;3.33;1.70;;;15.40;99.90;;;;;;5152961;27;20597;-69
2023/03/13 07:55:02;;;;;;;2.33;1.87;;;15.40;99.90;;;;;;5154188;27;20591;-69
2023/03/13 07:57:28;;;;;;;1.50;1.40;;;15.30;99.90;;;;;;5153912;27;20174;-69
2023/03/13 07:59:53;;;;;;;1.70;1.43;;;15.30;99.90;;;;;;5154227;27;20626;-69
2023/03/13 08:02:19;;;;;;;6.03;1.67;;;15.30;99.90;;;;;;5141774;27;20705;-69
2023/03/13 08:04:44;;;;;;;1.70;1.40;;;15.30;99.90;;;;;;5121359;27;20703;-69
2023/03/13 08:07:11;;;;;;;2.07;1.87;;;15.20;99.90;;;;;;5120822;27;20196;-69
2023/03/13 08:09:36;;;;;;;4.00;1.90;;;15.20;99.90;;;;;;5119253;27;20176;-69
2023/03/13 08:12:02;;;;;;;1.40;1.20;;;15.20;99.90;;;;;;5112500;28;20868;-69
2023/03/13 08:14:28;;;;;;;3.33;1.60;;;15.10;99.90;;;;;;5112790;28;20536;-69
2023/03/13 08:16:53;;;;;;;3.27;1.73;;;15.10;99.90;;;;;;5123699;27;20456;-70
2023/03/13 08:19:19;;;;;;;2.90;1.67;;;15.10;99.90;;;;;;5133148;27;20185;-69
2023/03/13 08:21:44;;;;;;;3.00;1.43;;;15.10;99.90;;;;;;5133111;27;20184;-70
2023/03/13 08:24:11;;;;;;;3.20;1.53;;;15.20;99.90;;;;;;5131060;27;20172;-70
2023/03/13 08:26:39;;;;;;;4.30;1.60;;;15.20;99.90;;;;;;5112509;28;20218;-70
2023/03/13 08:29:08;;;;;;;6.00;1.90;;;15.20;99.90;;;;;;5112168;28;20407;-69
2023/03/13 08:31:42;;;;;;;3.10;1.80;;;15.20;99.90;;;;;;5110944;28;21109;-69
2023/03/13 08:34:09;;;;;;;2.77;1.80;;;15.20;99.90;;;;;;5125503;27;20406;-69
2023/03/13 08:36:36;;;;;;;5.90;1.73;;;15.10;99.90;;;;;;5132935;27;20441;-69
2023/03/13 08:39:08;;;;;;;2.17;1.77;;;15.10;99.90;;;;;;5132610;27;20394;-69
2023/03/13 08:41:35;;;;;;;5.27;2.03;;;15.10;99.90;;;;;;5132849;27;20424;-69
2023/03/13 08:44:02;;;;;;;8.00;2.30;;;15.10;99.90;;;;;;5113113;27;20403;-70
2023/03/13 08:46:30;;;;;;;4.50;1.77;;;15.10;99.90;;;;;;5112195;28;20519;-69
2023/03/13 08:48:55;;;;;;;2.00;1.57;;;15.10;99.90;;;;;;5112057;28;20409;-70
2023/03/13 08:51:24;;;;;;;1.60;1.50;;;15.10;99.90;;;;;;5111913;28;20434;-70
2023/03/13 08:53:50;;;;;;;5.10;2.10;;;15.10;99.90;;;;;;5112245;28;20169;-69
2023/03/13 08:56:18;;;;;;;2.60;2.40;;;15.20;99.90;;;;;;5112212;28;20791;-70
2023/03/13 08:58:48;;;;;;;3.00;1.50;;;15.20;99.90;;;;;;5116948;27;20438;-69
2023/03/13 09:01:14;;;;;;;2.20;1.83;;;15.20;99.90;;;;;;5144080;27;20430;-69
2023/03/13 09:03:40;;;;;;;5.07;1.67;;;15.20;99.90;;;;;;5131499;28;20398;-69
2023/03/13 09:06:07;;;;;;;4.77;1.27;;;15.30;99.90;;;;;;5112092;28;20405;-68
2023/03/13 09:08:33;;;;;;;4.03;1.80;;;15.30;99.90;;;;;;5111905;28;20418;-69
2023/03/13 09:11:03;;;;;;;1.50;1.40;;;15.30;99.90;;;;;;5111910;28;20422;-69
2023/03/13 09:13:31;;;;;;;3.83;1.60;;;15.30;99.90;;;;;;5111946;28;20454;-69
2023/03/13 09:16:01;;;;;;;1.77;1.40;;;15.40;99.90;;;;;;5114035;28;20453;-69
2023/03/13 09:18:28;;;;;;;1.40;1.23;;;15.40;99.90;;;;;;5122791;27;20402;-69
2023/03/13 09:20:53;;;;;;;1.93;1.40;;;15.40;99.90;;;;;;5124575;27;20495;-69
2023/03/13 09:23:20;;;;;;;2.27;1.40;;;15.40;99.90;;;;;;5126675;27;20389;-69
2023/03/13 09:25:48;;;;;;;2.33;1.20;;;15.50;99.90;;;;;;5115681;28;20165;-69
2023/03/13 09:28:14;;;;;;;1.30;1.10;;;15.60;99.90;;;;;;5115554;28;20405;-69
2023/03/13 09:30:39;;;;;;;4.87;1.87;;;15.60;99.90;;;;;;5115786;28;20399;-69
2023/03/13 09:33:05;;;;;;;2.37;1.67;;;15.60;99.90;;;;;;5116902;27;20177;-70
2023/03/13 09:35:30;;;;;;;2.10;1.43;;;15.60;99.90;;;;;;5115599;28;20669;-70
2023/03/13 09:37:56;;;;;;;2.03;1.07;;;15.60;99.90;;;;;;5115349;28;20165;-70
2023/03/13 09:40:24;;;;;;;1.30;1.17;;;15.60;99.90;;;;;;5115574;28;20546;-70
2023/03/13 09:42:56;;;;;;;6.10;1.70;;;15.70;99.90;;;;;;5126699;27;20184;-70
2023/03/13 09:45:33;;;;;;;5.90;2.13;;;15.80;99.90;;;;;;5136130;27;20398;-70
2023/03/13 09:48:05;;;;;;;2.17;1.43;;;15.80;99.90;;;;;;5135761;27;20880;-69
2023/03/13 09:50:44;;;;;;;1.43;1.00;;;15.90;99.90;;;;;;5129683;27;20437;-69
2023/03/13 09:53:31;;;;;;;2.00;1.30;;;15.90;99.90;;;;;;5133001;27;20481;-69
2023/03/13 09:55:57;;;;;;;1.43;1.30;;;16.00;99.90;;;;;;5135802;27;20983;-69
2023/03/13 09:58:27;;;;;;;2.10;1.37;;;16.10;99.90;;;;;;5122543;27;20493;-69
2023/03/13 10:01:15;;;;;;;1.57;1.17;;;16.30;99.90;;;;;;5115239;28;20531;-69
2023/03/13 10:03:55;;;;;;;1.17;1.07;;;16.40;99.90;;;;;;5115131;28;20399;-69
2023/03/13 10:06:23;;;;;;;2.03;1.40;;;16.60;99.90;;;;;;5115027;28;20410;-70
2023/03/13 10:08:49;;;;;;;1.40;1.10;;;16.80;99.90;;;;;;5113481;28;20916;-69
2023/03/13 10:11:28;;;;;;;2.50;1.00;;;17.00;99.90;;;;;;5135338;27;20421;-70
2023/03/13 10:14:16;;;;;;;1.10;1.00;;;17.70;99.90;;;;;;5138178;27;20258;-70
2023/03/13 10:17:00;;;;;;;1.10;0.97;;;18.20;99.90;;;;;;5128220;27;20454;-70
2023/03/13 10:19:33;;;;;;;1.20;1.10;;;18.70;99.90;;;;;;5123919;27;20398;-69
2023/03/13 10:22:02;;;;;;;1.40;1.03;;;19.70;99.90;;;;;;5124539;27;20426;-70
2023/03/13 10:24:41;;;;;;;3.87;1.50;;;20.20;99.90;;;;;;5124068;27;20547;-70
2023/03/13 10:27:08;;;;;;;1.20;1.10;;;20.10;99.90;;;;;;5122411;27;20753;-70
2023/03/13 10:29:34;;;;;;;1.40;1.10;;;19.90;99.90;;;;;;5132253;27;20406;-70
2023/03/13 10:32:01;;;;;;;1.50;1.20;;;20.80;99.90;;;;;;5119694;27;20433;-69
2023/03/13 10:34:50;;;;;;;1.10;0.90;;;21.90;99.90;;;;;;5124925;27;20165;-70
2023/03/13 10:37:20;;;;;;;1.30;0.90;;;22.20;99.90;;;;;;5129032;27;20422;-67
2023/03/13 10:39:46;;;;;;;1.80;1.03;;;23.00;99.90;;;;;;5120769;27;20493;-67
2023/03/13 10:42:22;;;;;;;1.73;0.97;;;24.30;99.70;;;;;;5114681;28;20493;-68
2023/03/13 10:44:48;;;;;;;3.40;1.00;;;23.50;95.80;;;;;;5114303;28;20191;-68
2023/03/13 10:47:14;;;;;;;3.00;1.00;;;22.60;98.60;;;;;;5116345;28;20451;-64
2023/03/13 10:49:49;;;;;;;1.50;0.87;;;22.90;99.80;;;;;;5114426;28;20399;-65
2023/03/13 10:52:42;;;;;;;1.00;0.80;;;23.90;99.90;;;;;;5114136;28;20402;-67
2023/03/13 10:55:16;;;;;;;2.80;1.20;;;25.20;92.90;;;;;;5114150;28;20518;-69
2023/03/13 10:58:10;;;;;;;1.70;1.07;;;26.10;89.40;;;;;;5128591;27;20458;-68
2023/03/13 11:00:38;;;;;;;1.10;1.00;;;26.90;79.10;;;;;;5134244;27;20416;-68
2023/03/13 11:03:17;;;;;;;1.30;0.90;;;26.50;73.50;;;;;;5134501;27;20425;-70
2023/03/13 11:05:43;;;;;;;0.90;0.80;;;24.60;73.20;;;;;;5116490;27;20451;-72
2023/03/13 11:08:15;;;;;;;1.57;1.00;;;23.10;80.80;;;;;;5119384;27;20892;-69
2023/03/13 11:10:54;;;;;;;1.10;0.80;;;22.30;89.20;;;;;;5113790;28;20893;-69
2023/03/13 11:13:28;;;;;;;1.20;0.90;;;22.00;92.90;;;;;;5113680;28;20476;-70
2023/03/13 11:15:58;;;;;;;1.23;0.90;;;21.70;94.10;;;;;;5117787;27;20882;-72
2023/03/13 11:18:31;;;;;;;1.40;0.93;;;21.10;95.50;;;;;;5132159;27;20392;-69
2023/03/13 11:20:58;;;;;;;1.20;0.87;;;20.50;97.40;;;;;;5154878;27;20417;-72
2023/03/13 11:23:38;;;;;;;2.30;0.80;;;19.90;99.90;;;;;;5155109;27;20456;-70
2023/03/13 11:26:18;;;;;;;2.43;0.80;;;19.60;99.90;;;;;;5155038;27;20430;-71
2023/03/13 11:29:07;;;;;;;1.30;0.90;;;19.50;99.90;;;;;;5153424;27;20408;-73
2023/03/13 11:31:39;;;;;;;2.03;0.80;;;19.60;99.90;;;;;;5154994;27;20423;-69
2023/03/13 11:34:22;;;;;;;1.10;0.80;;;19.70;99.90;;;;;;5154767;27;20811;-71
2023/03/13 11:36:55;;;;;;;3.00;0.97;;;20.50;99.90;;;;;;5114205;27;20450;-70
2023/03/13 11:39:39;;;;;;;1.07;0.80;;;20.60;99.90;;;;;;5112925;28;20834;-70
2023/03/13 11:42:16;;;;;;;0.90;0.70;;;20.20;99.90;;;;;;5113340;28;20418;-70
2023/03/13 11:44:48;;;;;;;1.13;0.70;;;19.90;99.90;;;;;;5114049;28;20402;-71
2023/03/13 11:47:49;;;;;;;1.97;0.70;;;19.60;99.90;;;;;;5112417;28;20406;-71
2023/03/13 11:50:35;;;;;;;1.00;0.70;;;19.90;99.90;;;;;;5115554;27;20842;-71
2023/03/13 11:53:22;;;;;;;1.00;0.67;;;21.30;99.90;;;;;;5123962;27;20411;-73
2023/03/13 11:56:28;;;;;;;0.97;0.80;;;21.60;99.90;;;;;;5121702;27;20456;-67
2023/03/13 11:59:04;;;;;;;1.67;0.80;;;21.20;99.90;;;;;;5120761;27;20470;-72
2023/03/13 12:01:42;;;;;;;3.13;0.80;;;20.60;99.90;;;;;;5118184;27;20796;-73
2023/03/13 12:04:37;;;;;;;1.00;0.60;;;20.10;99.90;;;;;;5123781;27;20406;-72
2023/03/13 12:07:15;;;;;;;0.80;0.60;;;19.60;99.90;;;;;;5112706;28;20973;-72
2023/03/13 12:09:46;;;;;;;1.00;0.77;;;19.20;99.90;;;;;;5112808;28;20440;-72
2023/03/13 12:12:20;;;;;;;2.07;0.73;;;18.90;99.90;;;;;;5119000;27;20879;-73
2023/03/13 12:15:12;;;;;;;0.87;0.63;;;18.70;99.90;;;;;;5133329;27;20421;-72
2023/03/13 12:17:45;;;;;;;0.90;0.73;;;18.50;99.90;;;;;;5129434;27;20405;-72
2023/03/13 12:20:26;;;;;;;0.93;0.70;;;18.80;99.90;;;;;;5112547;28;20387;-73
2023/03/13 12:23:06;;;;;;;0.90;0.70;;;19.70;99.90;;;;;;5112330;28;20776;-72
2023/03/13 12:25:55;;;;;;;0.90;0.60;;;22.40;99.90;;;;;;5111276;28;20407;-75
2023/03/13 12:28:23;;;;;;;1.27;0.90;;;25.20;93.50;;;;;;5142319;27;20405;-73
2023/03/13 12:31:15;;;;;;;4.63;0.97;;;25.70;74.40;;;;;;5131549;27;20756;-72
2023/03/13 12:33:52;;;;;;;0.90;0.70;;;24.50;72.40;;;;;;5132370;27;20402;-72
2023/03/13 12:36:40;;;;;;;0.90;0.70;;;23.10;75.90;;;;;;5113352;28;20973;-73
2023/03/13 12:39:20;;;;;;;2.20;0.70;;;22.00;80.30;;;;;;5112175;28;20474;-71
2023/03/13 12:42:06;;;;;;;0.90;0.70;;;21.30;85.80;;;;;;5112341;28;20407;-73
2023/03/13 12:44:32;;;;;;;1.40;1.00;;;20.70;90.70;;;;;;5112381;28;20872;-71
2023/03/13 12:47:22;;;;;;;1.07;0.70;;;20.20;93.60;;;;;;5111988;28;20406;-72
2023/03/13 12:50:34;;;;;;;1.07;0.80;;;20.00;96.70;;;;;;5112478;28;20402;-72
2023/03/13 12:53:13;;;;;;;1.00;0.90;;;19.70;98.70;;;;;;5115214;28;20422;-73
2023/03/13 12:56:04;;;;;;;1.40;0.93;;;19.30;99.90;;;;;;5116398;28;20452;-72
2023/03/13 12:59:01;;;;;;;5.50;1.03;;;19.40;99.90;;;;;;5116121;28;20399;-72